createdAt,value
2022-08-04T00:01:17.818Z,2.80
2022-08-04T00:06:14.334Z,3.30
2022-08-04T00:11:02.936Z,2.97
2022-08-04T00:15:53.935Z,2.90
2022-08-04T00:20:43.017Z,3.30
2022-08-04T00:25:39.292Z,2.83
2022-08-04T00:30:26.686Z,2.87
2022-08-04T00:35:16.068Z,2.90
2022-08-04T00:40:15.104Z,2.53
2022-08-04T00:46:16.131Z,2.83
2022-08-04T00:50:59.694Z,2.83
2022-08-04T00:56:06.505Z,2.67
2022-08-04T01:01:00.638Z,3.37
2022-08-04T01:05:58.713Z,3.13
2022-08-04T01:10:58.325Z,2.80
2022-08-04T01:16:00.457Z,2.57
2022-08-04T01:20:57.273Z,2.77
2022-08-04T01:26:42.459Z,2.80
2022-08-04T01:31:27.265Z,2.87
2022-08-04T01:36:13.109Z,2.90
2022-08-04T01:40:59.276Z,2.73
2022-08-04T01:45:43.456Z,2.93
2022-08-04T01:50:32.622Z,2.60
2022-08-04T01:55:18.291Z,2.80
2022-08-04T02:00:02.535Z,2.80
2022-08-04T02:04:47.817Z,2.73
2022-08-04T02:09:54.610Z,2.83
2022-08-04T02:14:46.649Z,2.80
2022-08-04T02:19:34.677Z,3.00
2022-08-04T02:24:23.409Z,2.80
2022-08-04T02:29:18.254Z,3.10
2022-08-04T02:34:09.153Z,3.00
2022-08-04T02:38:58.903Z,2.90
2022-08-04T02:43:52.045Z,3.20
2022-08-04T02:48:39.477Z,3.17
2022-08-04T02:53:24.289Z,3.13
2022-08-04T02:58:09.413Z,2.90
2022-08-04T03:03:01.456Z,3.03
2022-08-04T03:08:09.236Z,3.10
2022-08-04T03:13:18.241Z,3.27
2022-08-04T03:18:28.195Z,3.20
2022-08-04T03:23:43.567Z,3.43
2022-08-04T03:29:06.201Z,3.03
2022-08-04T03:34:14.340Z,2.90
2022-08-04T03:39:24.427Z,3.00
2022-08-04T03:44:31.454Z,3.00
2022-08-04T03:50:04.462Z,2.80
2022-08-04T03:55:22.076Z,2.90
2022-08-04T04:00:10.795Z,3.17
2022-08-04T04:05:18.768Z,2.87
2022-08-04T04:10:28.839Z,2.90
2022-08-04T04:15:36.727Z,2.77
2022-08-04T04:20:53.420Z,2.90
2022-08-04T04:25:51.212Z,2.53
2022-08-04T04:30:46.713Z,2.80
2022-08-04T04:35:40.122Z,2.50
2022-08-04T04:40:35.401Z,2.20
2022-08-04T04:45:33.855Z,2.80
2022-08-04T04:50:30.038Z,2.60
2022-08-04T04:55:22.827Z,2.80
2022-08-04T05:00:09.917Z,2.80
2022-08-04T05:05:26.274Z,2.75
2022-08-04T05:10:22.577Z,2.80
2022-08-04T05:15:11.654Z,3.08
2022-08-04T05:20:05.463Z,2.30
2022-08-04T05:24:51.014Z,2.30
2022-08-04T05:29:41.047Z,2.50
2022-08-04T05:34:29.383Z,2.50
2022-08-04T05:39:20.320Z,2.47
2022-08-04T05:44:06.618Z,2.53
2022-08-04T05:48:51.825Z,2.92
2022-08-04T05:53:36.420Z,2.55
2022-08-04T05:58:22.083Z,2.70
2022-08-04T06:03:06.859Z,3.00
2022-08-04T06:08:12.789Z,2.85
2022-08-04T06:12:57.904Z,2.80
2022-08-04T06:18:32.771Z,2.60
2022-08-04T06:22:58.776Z,2.72
2022-08-04T06:27:43.210Z,2.88
2022-08-04T06:32:40.047Z,2.40
2022-08-04T06:37:43.179Z,2.60
2022-08-04T06:42:28.821Z,2.75
2022-08-04T06:47:13.946Z,2.85
2022-08-04T06:51:59.404Z,2.88
2022-08-04T06:56:45.847Z,2.78
2022-08-04T07:01:30.625Z,2.75
2022-08-04T07:06:15.226Z,2.80
2022-08-04T07:10:59.914Z,2.83
2022-08-04T07:15:47.032Z,2.88
2022-08-04T07:20:36.567Z,2.72
2022-08-04T07:25:22.157Z,2.85
2022-08-04T07:30:27.800Z,2.83
2022-08-04T07:36:09.295Z,3.05
2022-08-04T07:40:18.436Z,2.85
2022-08-04T07:45:02.434Z,3.30
2022-08-04T07:49:55.459Z,3.22
2022-08-04T07:54:43.597Z,2.65
2022-08-04T07:59:27.616Z,2.72
2022-08-04T08:04:12.937Z,2.63
2022-08-04T08:08:57.074Z,2.72
2022-08-04T08:13:43.950Z,2.90
2022-08-04T08:18:27.845Z,2.60
2022-08-04T08:23:12.150Z,2.20
2022-08-04T08:27:57.776Z,2.35
2022-08-04T08:32:43.879Z,2.50
2022-08-04T08:37:34.889Z,2.65
2022-08-04T08:42:48.949Z,2.45
2022-08-04T08:48:04.982Z,2.53
2022-08-04T08:53:04.168Z,2.13
2022-08-04T08:58:13.771Z,2.70
2022-08-04T09:03:34.132Z,2.10
2022-08-04T09:08:32.492Z,2.75
2022-08-04T09:13:21.664Z,2.38
2022-08-04T09:18:11.128Z,2.50
2022-08-04T09:23:05.800Z,1.95
2022-08-04T09:27:55.063Z,2.10
2022-08-04T09:32:50.386Z,2.10
2022-08-04T09:37:45.627Z,2.25
2022-08-04T09:42:39.613Z,1.98
2022-08-04T09:47:41.073Z,2.10
2022-08-04T09:52:40.050Z,2.10
2022-08-04T09:57:38.541Z,2.20
2022-08-04T10:03:01.147Z,2.00
2022-08-04T10:08:16.141Z,1.58
2022-08-04T10:13:23.160Z,2.25
2022-08-04T10:18:27.219Z,1.80
2022-08-04T10:23:29.250Z,1.80
2022-08-04T10:28:17.717Z,2.03
2022-08-04T10:33:09.628Z,2.20
2022-08-04T10:38:06.220Z,2.10
2022-08-04T10:43:01.754Z,2.08
2022-08-04T10:48:04.139Z,2.10
2022-08-04T10:52:55.728Z,1.60
2022-08-04T10:57:46.504Z,2.20
2022-08-04T11:02:45.247Z,1.90
2022-08-04T11:07:50.190Z,1.90
2022-08-04T11:12:50.095Z,1.85
2022-08-04T11:17:38.898Z,1.80
2022-08-04T11:22:28.188Z,1.80
2022-08-04T11:27:17.449Z,2.00
2022-08-04T11:32:06.048Z,2.17
2022-08-04T11:36:56.556Z,1.90
2022-08-04T11:41:48.313Z,1.60
2022-08-04T11:46:38.254Z,1.77
2022-08-04T11:51:25.344Z,1.83
2022-08-04T11:56:36.043Z,1.75
2022-08-04T12:01:26.854Z,1.80
2022-08-04T12:06:18.969Z,2.03
2022-08-04T12:11:20.665Z,2.38
2022-08-04T12:16:12.100Z,2.10
2022-08-04T12:21:01.222Z,1.73
2022-08-04T12:25:53.107Z,1.58
2022-08-04T12:31:00.158Z,1.83
2022-08-04T12:36:10.237Z,1.85
2022-08-04T12:40:59.511Z,1.50
2022-08-04T12:45:51.056Z,1.88
2022-08-04T12:50:36.554Z,1.88
2022-08-04T12:55:24.025Z,2.20
2022-08-04T13:00:09.835Z,1.80
2022-08-04T13:04:56.598Z,1.88
2022-08-04T13:09:48.677Z,2.15
2022-08-04T13:14:39.913Z,2.00
2022-08-04T13:19:23.797Z,1.80
2022-08-04T13:24:21.117Z,1.90
2022-08-04T13:29:16.683Z,2.20
2022-08-04T13:34:07.748Z,1.95
2022-08-04T13:39:08.569Z,1.83
2022-08-04T13:44:19.132Z,2.10
2022-08-04T13:49:28.463Z,2.05
2022-08-04T13:54:13.548Z,2.08
2022-08-04T13:59:01.713Z,2.10
2022-08-04T14:04:00.886Z,2.00
2022-08-04T14:08:56.403Z,2.42
2022-08-04T14:13:42.135Z,2.75
2022-08-04T14:18:38.651Z,2.22
2022-08-04T14:23:25.344Z,1.92
2022-08-04T14:28:47.266Z,2.00
2022-08-04T14:34:01.141Z,2.30
2022-08-04T14:38:50.546Z,1.92
2022-08-04T14:43:34.229Z,2.15
2022-08-04T14:48:18.789Z,2.33
2022-08-04T14:53:07.048Z,1.88
2022-08-04T14:58:36.646Z,2.35
2022-08-04T15:03:04.847Z,1.90
2022-08-04T15:07:48.606Z,2.03
2022-08-04T15:12:33.771Z,2.08
2022-08-04T15:17:29.893Z,2.08
2022-08-04T15:22:17.361Z,2.10
2022-08-04T15:27:06.535Z,2.13
2022-08-04T15:32:06.307Z,1.98
2022-08-04T15:36:56.844Z,2.13
2022-08-04T15:41:55.076Z,2.05
2022-08-04T15:47:19.066Z,2.22
2022-08-04T15:52:22.935Z,2.38
2022-08-04T15:57:08.048Z,2.08
2022-08-04T16:02:28.405Z,2.13
2022-08-04T16:07:13.944Z,1.73
2022-08-04T16:11:58.556Z,2.47
2022-08-04T16:16:50.751Z,2.33
2022-08-04T16:21:50.175Z,2.20
2022-08-04T16:26:54.384Z,1.90
2022-08-04T16:31:40.515Z,2.35
2022-08-04T16:36:56.507Z,2.13
2022-08-04T16:41:41.672Z,2.55
2022-08-04T16:47:08.782Z,1.77
2022-08-04T16:51:46.864Z,1.95
2022-08-04T16:56:33.583Z,2.40
2022-08-04T17:01:21.985Z,1.88
2022-08-04T17:06:19.548Z,2.17
2022-08-04T17:11:03.979Z,2.00
2022-08-04T17:15:50.044Z,1.98
2022-08-04T17:21:01.760Z,2.00
2022-08-04T17:25:54.925Z,2.40
2022-08-04T17:30:39.086Z,1.90
2022-08-04T17:35:38.883Z,2.05
2022-08-04T17:40:25.902Z,2.00
2022-08-04T17:50:26.921Z,2.38
2022-08-04T17:55:13.622Z,1.90
2022-08-04T18:00:00.664Z,2.03
2022-08-04T18:05:06.061Z,2.00
2022-08-04T18:10:07.734Z,2.08
2022-08-04T18:15:02.857Z,2.35
2022-08-04T18:19:55.440Z,1.88
2022-08-04T18:24:55.684Z,1.73
2022-08-04T18:29:40.881Z,2.40
2022-08-04T18:34:55.051Z,1.70
2022-08-04T18:40:19.557Z,2.03
2022-08-04T18:44:52.106Z,1.80
2022-08-04T18:50:59.018Z,2.30
2022-08-04T18:54:42.146Z,2.20
2022-08-04T18:59:25.974Z,2.00
2022-08-04T19:04:34.248Z,1.85
2022-08-04T19:09:21.809Z,2.25
2022-08-04T19:14:13.229Z,1.92
2022-08-04T19:18:57.795Z,1.90
2022-08-04T19:24:27.130Z,1.95
2022-08-04T19:28:45.246Z,2.00
2022-08-04T19:33:59.354Z,2.10
2022-08-04T19:38:37.955Z,2.42
2022-08-04T19:43:22.864Z,2.30
2022-08-04T19:53:37.611Z,2.03
2022-08-04T19:58:27.206Z,2.10
2022-08-04T20:03:13.789Z,2.22
2022-08-04T20:08:04.520Z,2.17
2022-08-04T20:12:55.677Z,2.00
2022-08-04T20:18:07.489Z,2.25
2022-08-04T20:22:52.377Z,2.47
2022-08-04T20:27:38.528Z,2.20
2022-08-04T20:32:42.755Z,2.15
2022-08-04T20:37:55.522Z,2.13
2022-08-04T20:42:44.977Z,2.28
2022-08-04T20:47:35.752Z,2.33
2022-08-04T20:52:21.190Z,2.10
2022-08-04T20:57:05.113Z,2.42
2022-08-04T21:01:49.504Z,1.80
2022-08-04T21:06:37.421Z,2.50
2022-08-04T21:31:02.487Z,2.22
2022-08-04T21:35:56.187Z,2.47
2022-08-04T21:40:41.533Z,2.58
2022-08-04T21:45:25.912Z,2.50
2022-08-04T21:50:21.840Z,2.08
2022-08-04T21:55:07.538Z,2.35
2022-08-04T21:59:51.897Z,2.50
2022-08-04T22:04:39.340Z,2.20
2022-08-04T22:09:30.266Z,2.30
2022-08-04T22:14:29.493Z,2.50
2022-08-04T22:19:24.061Z,2.40
2022-08-04T22:24:23.162Z,2.30
2022-08-04T22:29:14.404Z,2.38
2022-08-04T22:34:00.111Z,2.25
2022-08-04T22:38:50.349Z,2.30
2022-08-04T22:43:37.610Z,2.33
2022-08-04T22:48:23.083Z,2.10
2022-08-04T22:53:11.630Z,2.30
2022-08-04T22:58:04.864Z,2.08
2022-08-04T23:02:53.640Z,2.35
2022-08-04T23:07:48.967Z,2.20
2022-08-04T23:12:33.745Z,2.20
2022-08-04T23:17:18.827Z,2.35
2022-08-04T23:22:04.521Z,2.15
2022-08-04T23:26:49.736Z,2.17
2022-08-04T23:31:41.208Z,2.30
2022-08-04T23:36:32.679Z,2.20
2022-08-04T23:41:54.083Z,2.33
2022-08-04T23:46:46.839Z,1.80
2022-08-04T23:51:35.067Z,2.22
2022-08-04T23:56:20.054Z,2.20
